Sunflower, Alabama
Current Conditions -  °F | °C
As of 10:56 PM on Tuesday 21 Oct 2014 (Local Time) from KMOB Reporting Station
Clear Clear  
Wind Chill: 60°   Ceiling: Unl
Heat Index: 60°   Visibility: 10mi
Dew Point: 55°   Wind: 7mph
Humidity: 83%   Direction: 360°N
Pressure: 30.03"   Gusts: NA
Location:  31.38°N, 88.01°W
Report Text: KMOB 220356Z 36006KT 10SM CLR 16/13 A3003 RMK AO2 SLP168 T01560128
Loading
Personal Weather Stations






























Interactive Weather Map
Tropical Storm Tracking
New forecast layout! Learn more

10-Day Weather Forecast

Advertisements
Track Severe Weather on mobile